sensor_id;sensor_type;location;lat;lon;timestamp;P1;durP1;ratioP1;P2;durP2;ratioP2
62788;SDS011;66401;42.016;21.454;2023-02-21T00:01:48;31.03;;;17.87;;
62788;SDS011;66401;42.016;21.454;2023-02-21T00:04:33;26.57;;;15.67;;
62788;SDS011;66401;42.016;21.454;2023-02-21T00:07:18;26.90;;;16.60;;
62788;SDS011;66401;42.016;21.454;2023-02-21T00:10:02;20.33;;;12.33;;
62788;SDS011;66401;42.016;21.454;2023-02-21T00:12:47;22.43;;;13.47;;
62788;SDS011;66401;42.016;21.454;2023-02-21T00:15:32;21.13;;;12.17;;
62788;SDS011;66401;42.016;21.454;2023-02-21T00:18:16;22.83;;;13.70;;
62788;SDS011;66401;42.016;21.454;2023-02-21T00:21:00;19.73;;;12.67;;
62788;SDS011;66401;42.016;21.454;2023-02-21T00:23:44;22.80;;;12.87;;
62788;SDS011;66401;42.016;21.454;2023-02-21T00:26:28;22.07;;;13.20;;
62788;SDS011;66401;42.016;21.454;2023-02-21T00:29:13;22.20;;;11.63;;
62788;SDS011;66401;42.016;21.454;2023-02-21T00:31:57;22.60;;;12.83;;
62788;SDS011;66401;42.016;21.454;2023-02-21T00:34:41;25.97;;;13.70;;
62788;SDS011;66401;42.016;21.454;2023-02-21T00:37:25;22.77;;;14.50;;
62788;SDS011;66401;42.016;21.454;2023-02-21T00:40:12;28.23;;;13.20;;
62788;SDS011;66401;42.016;21.454;2023-02-21T00:42:57;27.53;;;16.53;;
62788;SDS011;66401;42.016;21.454;2023-02-21T00:45:41;24.47;;;15.13;;
62788;SDS011;66401;42.016;21.454;2023-02-21T00:48:25;24.73;;;14.47;;
62788;SDS011;66401;42.016;21.454;2023-02-21T00:51:09;21.20;;;13.47;;
62788;SDS011;66401;42.016;21.454;2023-02-21T00:53:53;28.00;;;14.23;;
62788;SDS011;66401;42.016;21.454;2023-02-21T00:56:37;26.43;;;14.40;;
62788;SDS011;66401;42.016;21.454;2023-02-21T00:59:21;27.53;;;15.20;;
62788;SDS011;66401;42.016;21.454;2023-02-21T01:02:06;28.23;;;14.77;;
62788;SDS011;66401;42.016;21.454;2023-02-21T01:04:50;47.10;;;22.67;;
62788;SDS011;66401;42.016;21.454;2023-02-21T01:07:34;43.20;;;20.90;;
62788;SDS011;66401;42.016;21.454;2023-02-21T01:10:18;44.93;;;22.13;;
62788;SDS011;66401;42.016;21.454;2023-02-21T01:13:03;36.53;;;21.00;;
62788;SDS011;66401;42.016;21.454;2023-02-21T01:15:47;35.97;;;18.10;;
62788;SDS011;66401;42.016;21.454;2023-02-21T01:18:32;23.03;;;13.80;;
62788;SDS011;66401;42.016;21.454;2023-02-21T01:21:17;23.80;;;13.83;;
62788;SDS011;66401;42.016;21.454;2023-02-21T01:24:02;24.50;;;14.50;;
62788;SDS011;66401;42.016;21.454;2023-02-21T01:26:48;25.63;;;13.83;;
62788;SDS011;66401;42.016;21.454;2023-02-21T01:29:32;26.93;;;15.93;;
62788;SDS011;66401;42.016;21.454;2023-02-21T01:32:17;33.40;;;17.07;;
62788;SDS011;66401;42.016;21.454;2023-02-21T01:35:01;27.03;;;13.97;;
62788;SDS011;66401;42.016;21.454;2023-02-21T01:37:46;27.37;;;14.63;;
62788;SDS011;66401;42.016;21.454;2023-02-21T01:40:30;22.53;;;13.13;;
62788;SDS011;66401;42.016;21.454;2023-02-21T01:43:14;22.20;;;13.20;;
62788;SDS011;66401;42.016;21.454;2023-02-21T01:46:05;23.40;;;14.27;;
62788;SDS011;66401;42.016;21.454;2023-02-21T01:48:53;23.27;;;13.77;;
62788;SDS011;66401;42.016;21.454;2023-02-21T01:51:39;26.37;;;13.93;;
62788;SDS011;66401;42.016;21.454;2023-02-21T01:54:25;25.93;;;14.43;;
62788;SDS011;66401;42.016;21.454;2023-02-21T01:57:12;21.73;;;12.87;;
62788;SDS011;66401;42.016;21.454;2023-02-21T01:59:57;23.20;;;13.37;;
62788;SDS011;66401;42.016;21.454;2023-02-21T02:02:49;23.33;;;14.13;;
62788;SDS011;66401;42.016;21.454;2023-02-21T02:05:56;24.10;;;12.63;;
62788;SDS011;66401;42.016;21.454;2023-02-21T02:08:42;25.43;;;13.80;;
62788;SDS011;66401;42.016;21.454;2023-02-21T02:14:27;24.37;;;13.60;;
62788;SDS011;66401;42.016;21.454;2023-02-21T02:43:08;35.50;;;19.10;;
62788;SDS011;66401;42.016;21.454;2023-02-21T02:48:14;31.53;;;17.83;;
62788;SDS011;66401;42.016;21.454;2023-02-21T02:50:48;27.90;;;16.87;;
62788;SDS011;66401;42.016;21.454;2023-02-21T02:53:20;29.70;;;16.60;;
62788;SDS011;66401;42.016;21.454;2023-02-21T02:55:55;33.50;;;16.03;;
62788;SDS011;66401;42.016;21.454;2023-02-21T02:58:22;30.07;;;16.83;;
62788;SDS011;66401;42.016;21.454;2023-02-21T03:00:59;29.00;;;15.57;;
62788;SDS011;66401;42.016;21.454;2023-02-21T03:09:20;28.57;;;18.10;;
62788;SDS011;66401;42.016;21.454;2023-02-21T03:14:59;28.13;;;14.90;;
62788;SDS011;66401;42.016;21.454;2023-02-21T03:17:31;29.57;;;14.07;;
62788;SDS011;66401;42.016;21.454;2023-02-21T03:20:02;23.30;;;12.97;;
62788;SDS011;66401;42.016;21.454;2023-02-21T03:22:30;18.50;;;11.27;;
62788;SDS011;66401;42.016;21.454;2023-02-21T03:25:02;23.00;;;11.67;;
62788;SDS011;66401;42.016;21.454;2023-02-21T03:27:29;19.73;;;11.20;;
62788;SDS011;66401;42.016;21.454;2023-02-21T03:29:58;18.57;;;10.93;;
62788;SDS011;66401;42.016;21.454;2023-02-21T03:32:28;21.27;;;10.97;;
62788;SDS011;66401;42.016;21.454;2023-02-21T03:34:56;16.03;;;10.47;;
62788;SDS011;66401;42.016;21.454;2023-02-21T03:37:38;16.20;;;11.07;;
62788;SDS011;66401;42.016;21.454;2023-02-21T03:40:25;19.47;;;11.67;;
62788;SDS011;66401;42.016;21.454;2023-02-21T03:42:54;19.20;;;10.73;;
62788;SDS011;66401;42.016;21.454;2023-02-21T03:45:21;17.27;;;11.00;;
62788;SDS011;66401;42.016;21.454;2023-02-21T03:47:47;21.87;;;11.23;;
62788;SDS011;66401;42.016;21.454;2023-02-21T03:50:12;15.60;;;10.77;;
62788;SDS011;66401;42.016;21.454;2023-02-21T03:52:38;18.13;;;10.77;;
62788;SDS011;66401;42.016;21.454;2023-02-21T03:55:04;16.97;;;10.57;;
62788;SDS011;66401;42.016;21.454;2023-02-21T03:57:31;17.93;;;11.37;;
62788;SDS011;66401;42.016;21.454;2023-02-21T03:59:56;18.80;;;11.13;;
62788;SDS011;66401;42.016;21.454;2023-02-21T04:02:22;20.40;;;10.93;;
62788;SDS011;66401;42.016;21.454;2023-02-21T04:04:47;16.97;;;10.73;;
62788;SDS011;66401;42.016;21.454;2023-02-21T04:07:17;16.63;;;10.20;;
62788;SDS011;66401;42.016;21.454;2023-02-21T04:09:44;17.23;;;10.10;;
62788;SDS011;66401;42.016;21.454;2023-02-21T04:12:09;16.20;;;10.17;;
62788;SDS011;66401;42.016;21.454;2023-02-21T04:14:35;14.33;;;9.50;;
62788;SDS011;66401;42.016;21.454;2023-02-21T04:17:01;23.87;;;11.63;;
62788;SDS011;66401;42.016;21.454;2023-02-21T04:19:26;22.97;;;11.30;;
62788;SDS011;66401;42.016;21.454;2023-02-21T04:21:52;20.63;;;11.83;;
62788;SDS011;66401;42.016;21.454;2023-02-21T04:24:17;20.87;;;11.37;;
62788;SDS011;66401;42.016;21.454;2023-02-21T04:26:43;24.20;;;11.53;;
62788;SDS011;66401;42.016;21.454;2023-02-21T04:29:08;19.00;;;11.20;;
62788;SDS011;66401;42.016;21.454;2023-02-21T04:31:34;17.20;;;9.97;;
62788;SDS011;66401;42.016;21.454;2023-02-21T04:34:00;14.90;;;9.57;;
62788;SDS011;66401;42.016;21.454;2023-02-21T04:36:26;15.23;;;9.90;;
62788;SDS011;66401;42.016;21.454;2023-02-21T04:38:52;14.20;;;9.83;;
62788;SDS011;66401;42.016;21.454;2023-02-21T04:41:17;19.73;;;11.20;;
62788;SDS011;66401;42.016;21.454;2023-02-21T04:43:43;17.37;;;10.17;;
62788;SDS011;66401;42.016;21.454;2023-02-21T04:46:09;17.33;;;10.97;;
62788;SDS011;66401;42.016;21.454;2023-02-21T04:48:42;21.67;;;10.37;;
62788;SDS011;66401;42.016;21.454;2023-02-21T04:51:09;20.30;;;10.60;;
62788;SDS011;66401;42.016;21.454;2023-02-21T04:53:35;16.57;;;9.73;;
62788;SDS011;66401;42.016;21.454;2023-02-21T04:56:00;20.07;;;10.10;;
62788;SDS011;66401;42.016;21.454;2023-02-21T04:58:26;16.77;;;10.50;;
62788;SDS011;66401;42.016;21.454;2023-02-21T05:00:51;24.60;;;11.27;;
62788;SDS011;66401;42.016;21.454;2023-02-21T05:03:17;22.53;;;11.17;;
62788;SDS011;66401;42.016;21.454;2023-02-21T05:05:43;23.37;;;10.83;;
62788;SDS011;66401;42.016;21.454;2023-02-21T05:08:08;16.80;;;10.03;;
62788;SDS011;66401;42.016;21.454;2023-02-21T05:10:34;19.40;;;10.17;;
62788;SDS011;66401;42.016;21.454;2023-02-21T05:12:59;18.07;;;10.13;;
62788;SDS011;66401;42.016;21.454;2023-02-21T05:15:25;16.30;;;9.87;;
62788;SDS011;66401;42.016;21.454;2023-02-21T05:17:50;18.77;;;10.83;;
62788;SDS011;66401;42.016;21.454;2023-02-21T05:20:16;14.23;;;9.77;;
62788;SDS011;66401;42.016;21.454;2023-02-21T05:22:41;16.63;;;10.20;;
62788;SDS011;66401;42.016;21.454;2023-02-21T05:25:17;19.37;;;10.37;;
62788;SDS011;66401;42.016;21.454;2023-02-21T05:27:44;21.20;;;10.70;;
62788;SDS011;66401;42.016;21.454;2023-02-21T05:30:10;18.37;;;11.07;;
62788;SDS011;66401;42.016;21.454;2023-02-21T05:32:36;19.13;;;10.67;;
62788;SDS011;66401;42.016;21.454;2023-02-21T05:35:02;18.63;;;10.20;;
62788;SDS011;66401;42.016;21.454;2023-02-21T05:37:28;19.70;;;11.37;;
62788;SDS011;66401;42.016;21.454;2023-02-21T05:39:54;19.80;;;10.93;;
62788;SDS011;66401;42.016;21.454;2023-02-21T05:42:19;22.77;;;11.40;;
62788;SDS011;66401;42.016;21.454;2023-02-21T05:44:45;23.17;;;10.97;;
62788;SDS011;66401;42.016;21.454;2023-02-21T05:47:12;18.70;;;11.43;;
62788;SDS011;66401;42.016;21.454;2023-02-21T05:49:38;23.70;;;12.93;;
62788;SDS011;66401;42.016;21.454;2023-02-21T05:52:04;21.70;;;12.20;;
62788;SDS011;66401;42.016;21.454;2023-02-21T05:54:29;21.07;;;10.23;;
62788;SDS011;66401;42.016;21.454;2023-02-21T05:56:55;18.27;;;10.80;;
62788;SDS011;66401;42.016;21.454;2023-02-21T05:59:21;18.17;;;10.30;;
62788;SDS011;66401;42.016;21.454;2023-02-21T06:01:47;16.63;;;10.67;;
62788;SDS011;66401;42.016;21.454;2023-02-21T06:04:13;19.30;;;11.17;;
62788;SDS011;66401;42.016;21.454;2023-02-21T06:06:39;21.53;;;11.60;;
62788;SDS011;66401;42.016;21.454;2023-02-21T06:09:05;20.10;;;11.00;;
62788;SDS011;66401;42.016;21.454;2023-02-21T06:11:32;20.23;;;11.20;;
62788;SDS011;66401;42.016;21.454;2023-02-21T06:14:01;18.50;;;11.97;;
62788;SDS011;66401;42.016;21.454;2023-02-21T06:16:31;26.47;;;11.63;;
62788;SDS011;66401;42.016;21.454;2023-02-21T06:19:00;18.03;;;10.27;;
62788;SDS011;66401;42.016;21.454;2023-02-21T06:21:27;17.80;;;10.17;;
62788;SDS011;66401;42.016;21.454;2023-02-21T06:23:52;19.93;;;9.97;;
62788;SDS011;66401;42.016;21.454;2023-02-21T06:26:18;19.30;;;10.40;;
62788;SDS011;66401;42.016;21.454;2023-02-21T06:28:45;16.93;;;10.23;;
62788;SDS011;66401;42.016;21.454;2023-02-21T06:31:11;18.17;;;11.10;;
62788;SDS011;66401;42.016;21.454;2023-02-21T06:33:37;19.77;;;10.67;;
62788;SDS011;66401;42.016;21.454;2023-02-21T06:36:03;18.10;;;10.23;;
62788;SDS011;66401;42.016;21.454;2023-02-21T06:38:34;23.10;;;11.03;;
62788;SDS011;66401;42.016;21.454;2023-02-21T06:41:03;16.80;;;10.00;;
62788;SDS011;66401;42.016;21.454;2023-02-21T06:43:30;18.60;;;10.73;;
62788;SDS011;66401;42.016;21.454;2023-02-21T06:45:55;16.10;;;10.27;;
62788;SDS011;66401;42.016;21.454;2023-02-21T06:48:20;24.17;;;11.97;;
62788;SDS011;66401;42.016;21.454;2023-02-21T06:50:46;21.93;;;12.83;;
62788;SDS011;66401;42.016;21.454;2023-02-21T06:53:11;22.70;;;13.87;;
62788;SDS011;66401;42.016;21.454;2023-02-21T06:55:37;37.23;;;17.80;;
62788;SDS011;66401;42.016;21.454;2023-02-21T06:58:02;30.90;;;15.53;;
62788;SDS011;66401;42.016;21.454;2023-02-21T07:00:28;38.70;;;16.03;;
62788;SDS011;66401;42.016;21.454;2023-02-21T07:02:53;39.63;;;17.17;;
62788;SDS011;66401;42.016;21.454;2023-02-21T07:05:19;47.60;;;20.50;;
62788;SDS011;66401;42.016;21.454;2023-02-21T07:07:44;43.50;;;21.37;;
62788;SDS011;66401;42.016;21.454;2023-02-21T07:10:10;50.67;;;25.20;;
62788;SDS011;66401;42.016;21.454;2023-02-21T07:12:37;75.77;;;28.23;;
62788;SDS011;66401;42.016;21.454;2023-02-21T07:15:03;85.03;;;33.97;;
62788;SDS011;66401;42.016;21.454;2023-02-21T07:17:29;66.33;;;29.03;;
62788;SDS011;66401;42.016;21.454;2023-02-21T07:19:55;53.90;;;23.33;;
62788;SDS011;66401;42.016;21.454;2023-02-21T07:22:20;45.83;;;22.63;;
62788;SDS011;66401;42.016;21.454;2023-02-21T07:24:54;48.27;;;21.80;;
62788;SDS011;66401;42.016;21.454;2023-02-21T07:27:20;40.57;;;20.27;;
62788;SDS011;66401;42.016;21.454;2023-02-21T07:29:47;45.07;;;20.20;;
62788;SDS011;66401;42.016;21.454;2023-02-21T07:32:13;40.87;;;19.73;;
62788;SDS011;66401;42.016;21.454;2023-02-21T07:34:39;37.67;;;19.63;;
62788;SDS011;66401;42.016;21.454;2023-02-21T07:37:05;47.60;;;19.63;;
62788;SDS011;66401;42.016;21.454;2023-02-21T07:39:30;41.17;;;20.97;;
62788;SDS011;66401;42.016;21.454;2023-02-21T07:41:56;40.33;;;20.83;;
62788;SDS011;66401;42.016;21.454;2023-02-21T07:44:21;43.00;;;20.37;;
62788;SDS011;66401;42.016;21.454;2023-02-21T07:46:47;47.87;;;21.03;;
62788;SDS011;66401;42.016;21.454;2023-02-21T07:49:12;54.67;;;22.40;;
62788;SDS011;66401;42.016;21.454;2023-02-21T07:51:38;47.17;;;23.90;;
62788;SDS011;66401;42.016;21.454;2023-02-21T07:54:03;43.10;;;21.40;;
62788;SDS011;66401;42.016;21.454;2023-02-21T07:56:29;42.23;;;21.80;;
62788;SDS011;66401;42.016;21.454;2023-02-21T07:58:55;43.17;;;23.63;;
62788;SDS011;66401;42.016;21.454;2023-02-21T08:01:21;43.23;;;24.37;;
62788;SDS011;66401;42.016;21.454;2023-02-21T08:03:48;37.20;;;21.87;;
62788;SDS011;66401;42.016;21.454;2023-02-21T08:06:14;43.90;;;23.67;;
62788;SDS011;66401;42.016;21.454;2023-02-21T08:08:40;39.47;;;22.73;;
62788;SDS011;66401;42.016;21.454;2023-02-21T08:11:05;43.13;;;24.13;;
62788;SDS011;66401;42.016;21.454;2023-02-21T08:13:31;43.37;;;25.10;;
62788;SDS011;66401;42.016;21.454;2023-02-21T08:15:57;43.47;;;23.57;;
62788;SDS011;66401;42.016;21.454;2023-02-21T08:18:23;37.50;;;24.20;;
62788;SDS011;66401;42.016;21.454;2023-02-21T08:20:49;42.57;;;25.17;;
62788;SDS011;66401;42.016;21.454;2023-02-21T08:23:16;41.00;;;25.30;;
62788;SDS011;66401;42.016;21.454;2023-02-21T08:25:43;39.50;;;24.13;;
62788;SDS011;66401;42.016;21.454;2023-02-21T08:28:09;40.87;;;26.20;;
62788;SDS011;66401;42.016;21.454;2023-02-21T08:30:35;36.50;;;25.33;;
62788;SDS011;66401;42.016;21.454;2023-02-21T08:33:00;45.57;;;26.00;;
62788;SDS011;66401;42.016;21.454;2023-02-21T08:35:26;42.07;;;25.70;;
62788;SDS011;66401;42.016;21.454;2023-02-21T08:37:52;39.03;;;25.80;;
62788;SDS011;66401;42.016;21.454;2023-02-21T08:40:21;40.23;;;26.17;;
62788;SDS011;66401;42.016;21.454;2023-02-21T08:42:51;38.97;;;24.87;;
62788;SDS011;66401;42.016;21.454;2023-02-21T08:45:18;37.73;;;25.13;;
62788;SDS011;66401;42.016;21.454;2023-02-21T08:47:45;37.43;;;24.73;;
62788;SDS011;66401;42.016;21.454;2023-02-21T08:50:11;36.23;;;23.67;;
62788;SDS011;66401;42.016;21.454;2023-02-21T08:52:36;41.80;;;25.37;;
62788;SDS011;66401;42.016;21.454;2023-02-21T08:55:03;34.93;;;24.20;;
62788;SDS011;66401;42.016;21.454;2023-02-21T08:57:29;38.37;;;24.33;;
62788;SDS011;66401;42.016;21.454;2023-02-21T08:59:55;30.73;;;22.27;;
62788;SDS011;66401;42.016;21.454;2023-02-21T09:02:23;41.47;;;25.53;;
62788;SDS011;66401;42.016;21.454;2023-02-21T09:04:56;30.43;;;22.47;;
62788;SDS011;66401;42.016;21.454;2023-02-21T09:07:23;36.00;;;23.07;;
62788;SDS011;66401;42.016;21.454;2023-02-21T09:09:49;33.97;;;21.93;;
62788;SDS011;66401;42.016;21.454;2023-02-21T09:12:15;33.63;;;22.67;;
62788;SDS011;66401;42.016;21.454;2023-02-21T09:14:41;31.30;;;22.43;;
62788;SDS011;66401;42.016;21.454;2023-02-21T09:17:08;28.70;;;21.07;;
62788;SDS011;66401;42.016;21.454;2023-02-21T09:19:35;31.53;;;22.80;;
62788;SDS011;66401;42.016;21.454;2023-02-21T09:22:00;31.10;;;20.50;;
62788;SDS011;66401;42.016;21.454;2023-02-21T09:24:28;31.90;;;21.63;;
62788;SDS011;66401;42.016;21.454;2023-02-21T09:26:55;27.13;;;21.00;;
62788;SDS011;66401;42.016;21.454;2023-02-21T09:29:32;36.03;;;21.67;;
62788;SDS011;66401;42.016;21.454;2023-02-21T09:32:00;29.53;;;21.50;;
62788;SDS011;66401;42.016;21.454;2023-02-21T09:34:26;29.73;;;21.50;;
62788;SDS011;66401;42.016;21.454;2023-02-21T09:36:52;33.57;;;25.63;;
62788;SDS011;66401;42.016;21.454;2023-02-21T09:39:21;29.27;;;20.67;;
62788;SDS011;66401;42.016;21.454;2023-02-21T09:41:47;34.47;;;22.63;;
62788;SDS011;66401;42.016;21.454;2023-02-21T09:44:18;26.00;;;19.50;;
62788;SDS011;66401;42.016;21.454;2023-02-21T09:46:49;33.88;;;23.00;;
62788;SDS011;66401;42.016;21.454;2023-02-21T09:51:52;28.88;;;20.45;;
62788;SDS011;66401;42.016;21.454;2023-02-21T09:54:34;33.25;;;22.70;;
62788;SDS011;66401;42.016;21.454;2023-02-21T09:57:04;33.85;;;23.27;;
62788;SDS011;66401;42.016;21.454;2023-02-21T09:59:35;30.40;;;21.98;;
62788;SDS011;66401;42.016;21.454;2023-02-21T10:04:44;34.95;;;24.08;;
62788;SDS011;66401;42.016;21.454;2023-02-21T10:10:31;32.05;;;23.05;;
62788;SDS011;66401;42.016;21.454;2023-02-21T10:21:42;28.95;;;19.92;;
62788;SDS011;66401;42.016;21.454;2023-02-21T10:24:14;28.83;;;20.25;;
62788;SDS011;66401;42.016;21.454;2023-02-21T10:26:47;32.65;;;19.40;;
62788;SDS011;66401;42.016;21.454;2023-02-21T10:29:26;27.40;;;19.20;;
62788;SDS011;66401;42.016;21.454;2023-02-21T10:32:02;26.45;;;19.95;;
62788;SDS011;66401;42.016;21.454;2023-02-21T10:34:29;26.25;;;18.08;;
62788;SDS011;66401;42.016;21.454;2023-02-21T10:37:02;27.80;;;18.33;;
62788;SDS011;66401;42.016;21.454;2023-02-21T10:39:41;23.77;;;16.80;;
62788;SDS011;66401;42.016;21.454;2023-02-21T10:42:16;23.08;;;16.55;;
62788;SDS011;66401;42.016;21.454;2023-02-21T10:44:48;24.73;;;16.27;;
62788;SDS011;66401;42.016;21.454;2023-02-21T10:50:06;23.70;;;15.60;;
62788;SDS011;66401;42.016;21.454;2023-02-21T10:52:48;22.05;;;16.17;;
62788;SDS011;66401;42.016;21.454;2023-02-21T10:55:19;24.45;;;17.48;;
62788;SDS011;66401;42.016;21.454;2023-02-21T10:57:48;25.10;;;17.02;;
62788;SDS011;66401;42.016;21.454;2023-02-21T11:00:19;26.10;;;17.48;;
62788;SDS011;66401;42.016;21.454;2023-02-21T11:05:40;26.70;;;16.45;;
62788;SDS011;66401;42.016;21.454;2023-02-21T11:08:12;21.73;;;15.48;;
62788;SDS011;66401;42.016;21.454;2023-02-21T11:10:41;23.77;;;15.02;;
62788;SDS011;66401;42.016;21.454;2023-02-21T11:13:15;19.90;;;13.48;;
62788;SDS011;66401;42.016;21.454;2023-02-21T11:15:44;14.95;;;11.27;;
62788;SDS011;66401;42.016;21.454;2023-02-21T11:18:21;13.55;;;10.15;;
62788;SDS011;66401;42.016;21.454;2023-02-21T11:20:49;12.75;;;9.02;;
62788;SDS011;66401;42.016;21.454;2023-02-21T11:25:48;13.18;;;8.13;;
62788;SDS011;66401;42.016;21.454;2023-02-21T11:28:19;11.73;;;7.60;;
62788;SDS011;66401;42.016;21.454;2023-02-21T11:33:38;10.27;;;6.97;;
62788;SDS011;66401;42.016;21.454;2023-02-21T11:36:12;10.27;;;7.22;;
62788;SDS011;66401;42.016;21.454;2023-02-21T11:38:43;11.30;;;7.13;;
62788;SDS011;66401;42.016;21.454;2023-02-21T11:41:27;10.73;;;5.97;;
62788;SDS011;66401;42.016;21.454;2023-02-21T11:43:58;9.60;;;5.87;;
62788;SDS011;66401;42.016;21.454;2023-02-21T11:46:41;8.88;;;5.72;;
62788;SDS011;66401;42.016;21.454;2023-02-21T11:51:50;9.47;;;5.73;;
62788;SDS011;66401;42.016;21.454;2023-02-21T11:54:26;9.18;;;5.75;;
62788;SDS011;66401;42.016;21.454;2023-02-21T12:17:00;11.33;;;7.10;;
62788;SDS011;66401;42.016;21.454;2023-02-21T12:20:21;9.13;;;6.23;;
62788;SDS011;66401;42.016;21.454;2023-02-21T12:25:35;8.80;;;6.07;;
62788;SDS011;66401;42.016;21.454;2023-02-21T12:31:10;10.97;;;5.87;;
62788;SDS011;66401;42.016;21.454;2023-02-21T12:45:24;8.60;;;5.50;;
62788;SDS011;66401;42.016;21.454;2023-02-21T12:48:10;8.03;;;5.33;;
62788;SDS011;66401;42.016;21.454;2023-02-21T12:50:43;12.33;;;5.40;;
62788;SDS011;66401;42.016;21.454;2023-02-21T12:53:16;8.73;;;5.67;;
62788;SDS011;66401;42.016;21.454;2023-02-21T12:58:40;7.53;;;5.43;;
62788;SDS011;66401;42.016;21.454;2023-02-21T13:07:24;6.60;;;5.03;;
62788;SDS011;66401;42.016;21.454;2023-02-21T13:10:04;7.90;;;4.57;;
62788;SDS011;66401;42.016;21.454;2023-02-21T13:12:40;8.93;;;5.60;;
62788;SDS011;66401;42.016;21.454;2023-02-21T13:15:29;8.33;;;5.20;;
62788;SDS011;66401;42.016;21.454;2023-02-21T13:17:58;7.83;;;5.50;;
62788;SDS011;66401;42.016;21.454;2023-02-21T13:20:27;8.07;;;4.60;;
62788;SDS011;66401;42.016;21.454;2023-02-21T13:28:54;10.63;;;4.60;;
62788;SDS011;66401;42.016;21.454;2023-02-21T13:31:26;9.60;;;5.03;;
62788;SDS011;66401;42.016;21.454;2023-02-21T13:34:01;8.10;;;4.90;;
62788;SDS011;66401;42.016;21.454;2023-02-21T13:39:04;6.93;;;4.73;;
62788;SDS011;66401;42.016;21.454;2023-02-21T13:41:53;8.77;;;5.07;;
62788;SDS011;66401;42.016;21.454;2023-02-21T13:44:27;10.93;;;5.40;;
62788;SDS011;66401;42.016;21.454;2023-02-21T13:46:58;13.73;;;5.80;;
62788;SDS011;66401;42.016;21.454;2023-02-21T13:49:37;9.20;;;5.80;;
62788;SDS011;66401;42.016;21.454;2023-02-21T13:52:27;8.67;;;5.27;;
62788;SDS011;66401;42.016;21.454;2023-02-21T14:13:40;9.43;;;5.93;;
62788;SDS011;66401;42.016;21.454;2023-02-21T14:16:17;9.97;;;5.97;;
62788;SDS011;66401;42.016;21.454;2023-02-21T14:18:56;10.37;;;5.73;;
62788;SDS011;66401;42.016;21.454;2023-02-21T14:24:00;7.87;;;5.37;;
62788;SDS011;66401;42.016;21.454;2023-02-21T14:31:50;10.10;;;5.93;;
62788;SDS011;66401;42.016;21.454;2023-02-21T14:39:50;7.07;;;4.83;;
62788;SDS011;66401;42.016;21.454;2023-02-21T14:42:38;10.60;;;5.40;;
62788;SDS011;66401;42.016;21.454;2023-02-21T14:45:18;10.13;;;5.30;;
62788;SDS011;66401;42.016;21.454;2023-02-21T14:56:48;7.47;;;3.97;;
62788;SDS011;66401;42.016;21.454;2023-02-21T15:12:47;5.77;;;4.00;;
62788;SDS011;66401;42.016;21.454;2023-02-21T15:15:28;6.10;;;4.27;;
62788;SDS011;66401;42.016;21.454;2023-02-21T15:18:07;4.77;;;4.00;;
62788;SDS011;66401;42.016;21.454;2023-02-21T15:20:36;7.10;;;5.73;;
62788;SDS011;66401;42.016;21.454;2023-02-21T15:23:16;7.73;;;5.33;;
62788;SDS011;66401;42.016;21.454;2023-02-21T15:25:57;5.73;;;4.80;;
62788;SDS011;66401;42.016;21.454;2023-02-21T15:28:26;6.53;;;5.00;;
62788;SDS011;66401;42.016;21.454;2023-02-21T15:30:58;6.73;;;4.83;;
62788;SDS011;66401;42.016;21.454;2023-02-21T15:33:27;9.27;;;5.30;;
62788;SDS011;66401;42.016;21.454;2023-02-21T15:35:57;6.67;;;5.03;;
62788;SDS011;66401;42.016;21.454;2023-02-21T15:39:22;10.70;;;5.27;;
62788;SDS011;66401;42.016;21.454;2023-02-21T15:41:38;9.90;;;5.37;;
62788;SDS011;66401;42.016;21.454;2023-02-21T15:44:15;10.00;;;4.83;;
62788;SDS011;66401;42.016;21.454;2023-02-21T15:49:16;7.90;;;5.13;;
62788;SDS011;66401;42.016;21.454;2023-02-21T15:51:45;8.03;;;4.57;;
62788;SDS011;66401;42.016;21.454;2023-02-21T15:56:42;9.10;;;5.20;;
62788;SDS011;66401;42.016;21.454;2023-02-21T15:59:16;8.23;;;5.20;;
62788;SDS011;66401;42.016;21.454;2023-02-21T16:01:43;8.80;;;5.50;;
62788;SDS011;66401;42.016;21.454;2023-02-21T16:04:16;6.40;;;4.60;;
62788;SDS011;66401;42.016;21.454;2023-02-21T16:06:46;11.00;;;5.77;;
62788;SDS011;66401;42.016;21.454;2023-02-21T16:09:28;9.10;;;5.73;;
62788;SDS011;66401;42.016;21.454;2023-02-21T16:17:05;11.67;;;5.93;;
62788;SDS011;66401;42.016;21.454;2023-02-21T16:19:31;11.87;;;6.57;;
62788;SDS011;66401;42.016;21.454;2023-02-21T16:25:06;11.83;;;6.67;;
62788;SDS011;66401;42.016;21.454;2023-02-21T16:27:35;10.83;;;6.53;;
62788;SDS011;66401;42.016;21.454;2023-02-21T16:30:04;9.87;;;6.57;;
62788;SDS011;66401;42.016;21.454;2023-02-21T16:32:31;10.97;;;6.43;;
62788;SDS011;66401;42.016;21.454;2023-02-21T16:34:59;11.13;;;7.03;;
62788;SDS011;66401;42.016;21.454;2023-02-21T16:37:25;12.07;;;7.53;;
62788;SDS011;66401;42.016;21.454;2023-02-21T16:39:52;10.63;;;6.80;;
62788;SDS011;66401;42.016;21.454;2023-02-21T16:42:18;13.30;;;7.33;;
62788;SDS011;66401;42.016;21.454;2023-02-21T16:44:44;9.77;;;6.07;;
62788;SDS011;66401;42.016;21.454;2023-02-21T16:47:16;11.97;;;7.30;;
62788;SDS011;66401;42.016;21.454;2023-02-21T16:49:44;11.93;;;7.40;;
62788;SDS011;66401;42.016;21.454;2023-02-21T16:52:13;11.47;;;7.70;;
62788;SDS011;66401;42.016;21.454;2023-02-21T16:54:39;12.60;;;8.83;;
62788;SDS011;66401;42.016;21.454;2023-02-21T16:57:05;16.37;;;11.07;;
62788;SDS011;66401;42.016;21.454;2023-02-21T16:59:31;42.87;;;29.97;;
62788;SDS011;66401;42.016;21.454;2023-02-21T17:01:57;36.13;;;21.90;;
62788;SDS011;66401;42.016;21.454;2023-02-21T17:04:23;39.27;;;22.27;;
62788;SDS011;66401;42.016;21.454;2023-02-21T17:06:54;41.70;;;28.73;;
62788;SDS011;66401;42.016;21.454;2023-02-21T17:09:23;56.77;;;32.60;;
62788;SDS011;66401;42.016;21.454;2023-02-21T17:11:52;54.37;;;31.50;;
62788;SDS011;66401;42.016;21.454;2023-02-21T17:14:17;57.90;;;32.40;;
62788;SDS011;66401;42.016;21.454;2023-02-21T17:16:44;53.47;;;28.63;;
62788;SDS011;66401;42.016;21.454;2023-02-21T17:19:13;45.97;;;24.90;;
62788;SDS011;66401;42.016;21.454;2023-02-21T17:21:41;41.80;;;23.33;;
62788;SDS011;66401;42.016;21.454;2023-02-21T17:24:07;40.67;;;24.00;;
62788;SDS011;66401;42.016;21.454;2023-02-21T17:26:33;47.07;;;25.23;;
62788;SDS011;66401;42.016;21.454;2023-02-21T17:28:59;44.00;;;25.00;;
62788;SDS011;66401;42.016;21.454;2023-02-21T17:31:24;40.60;;;21.73;;
62788;SDS011;66401;42.016;21.454;2023-02-21T17:33:50;37.47;;;20.83;;
62788;SDS011;66401;42.016;21.454;2023-02-21T17:36:20;31.50;;;17.33;;
62788;SDS011;66401;42.016;21.454;2023-02-21T17:38:47;28.23;;;16.00;;
62788;SDS011;66401;42.016;21.454;2023-02-21T17:41:13;27.43;;;16.00;;
62788;SDS011;66401;42.016;21.454;2023-02-21T17:43:41;29.47;;;17.90;;
62788;SDS011;66401;42.016;21.454;2023-02-21T17:46:13;30.70;;;18.00;;
62788;SDS011;66401;42.016;21.454;2023-02-21T17:48:41;32.80;;;18.13;;
62788;SDS011;66401;42.016;21.454;2023-02-21T17:51:07;29.43;;;17.73;;
62788;SDS011;66401;42.016;21.454;2023-02-21T17:53:34;28.73;;;18.30;;